Terminal Aerodrome Forecast
Issued by NWS

Home | Current Version | Previous Version | Graphics & Text | Print | Product List | Glossary On
Versions: 1 2 3 4 5 6 7 8 9 10 11 12 13 14 15 16 17 18 19 20 21 22 23 24 25 26
152
FTUS43 KLOT 292058 AAA
TAFORD
TAF AMD
KORD 292058Z 2921/3024 19014KT P6SM SCT030 BKN100 BKN200
     FM300000 19009KT P6SM BKN090
     FM300600 24006KT P6SM SCT080
     FM301600 24010G16KT P6SM SCT200
     FM301800 24013G21KT P6SM SCT025 BKN050
     FM302100 24014G23KT P6SM VCSH BKN025=

USA.gov is the U.S. government's official web portal to all federal, state and local government web resources and services.